Waldorf, MD (20601)

1:52 PM EDT en Septiembre 19, 2014 (GMT -0400)
Sentry Woods | Change Station
CLOSE
Current Station
Estación meteorológica personal
Location: Waldorf, MD
Altura: 210 ft
Estaciones meteorológicas cercanas

Alt 210 ft 38.61 °N, 76.88 °W | Updated 6 minutes ago

Parcialmente nublado
Parcialmente nublado
74.7 ° F
Sensación térmica 76 ° F
N
0.0
Viento Variable Viento desde ESE

Hoy
Alta -- | Baja -- ° F
--% Posibilidad de precipitaciones
Ayer
Alta -- | Baja -- ° F
Precip. -- pul
6:52 AM 7:09 PM
Creciente menguante, 18% visible
Presión 30.26 pul
Visibilidad 10.0 Millas
Nubes Baja 3100 ft
Índice de calor 76 ° F
Punto de rocío 65 ° F
Humedad 71%
Precipitaciones 0.00 pul
Espesor de la nieve No disponible.
UV 7 de una escala de 12
Polen 4.50 de una escala de 12
Calidad del aire No disponible.
Flu Activity No disponible.
SPECI KADW 191743Z AUTO 07005KT 10SM -RA FEW031 22/14 A3026 RMK AO2

More Conditions Fewer Conditions

Presión 30.26 pul
Visibilidad 10.0 Millas
Nubes Baja 3100 ft
Índice de calor 76 ° F
Punto de rocío 65 ° F
Humedad 71%
Precipitaciones 0.00 pul
Espesor de la nieve No disponible.
UV 7 de una escala de 12
Polen 4.50 de una escala de 12
Calidad del aire No disponible.
Flu Activity No disponible.
SPECI KADW 191743Z AUTO 07005KT 10SM -RA FEW031 22/14 A3026 RMK AO2

More Conditions Fewer Conditions

10-Day Weather Forecast

Almanac

Astronomía

Sep. 19, 2014 Salida Puesta
Hora real 6:52 AM EDT 7:09 PM EDT
Crepúsculo civil 6:25 AM EDT 7:35 PM EDT
Crepúsculo náutico 5:54 AM EDT 8:06 PM EDT
Crepúsculo astronómico 5:23 AM EDT 8:38 PM EDT
Luna 2:38 AM EDT 4:34 PM EDT
Horas de luz 13h 09m
Horas de luz
12h 16m
Tomorrow will be 2m 29s shorter.
Creciente menguante, 18% of the Moon is Illuminated
Hoy
Creciente menguante
Sep 24
Nueva
Oct 1
Cuarto creciente
Oct 8
Luna llena
Oct 15
Cuarto menguante

Extremos de hoy

Máximos del estado Bajos del estado

Community

WunderPhotos

Upload Photos

1,754,668 ¡fotos cargadas!

Nearby

Grosos de nieve

Estación Profundido Altura
No tenemos constancia de nieve nueva.

Actividad de terremotos

Ciudad Distance Mag. Tiempo y dato
No hay informes recientes de la actividad sísmica.
Magnitud mínima muestra es 2,5.

Temperaturas de aguas costeras

Lugar Temperatura
Washington, DC 73.9 ° F
Baltimore, MD 75.9 ° F
Solomons Island, MD 75.9 ° F

Estaciones meteorológicas cercanas